createdAt,value
2018-06-12T00:00:41.788Z,97
2018-06-12T00:01:41.708Z,97
2018-06-12T00:02:41.703Z,97
2018-06-12T00:03:41.738Z,97
2018-06-12T00:04:41.732Z,97
2018-06-12T00:05:41.700Z,97
2018-06-12T00:06:41.716Z,97
2018-06-12T00:07:41.707Z,97
2018-06-12T00:08:41.981Z,97
2018-06-12T00:09:41.704Z,97
2018-06-12T00:10:41.972Z,97
2018-06-12T00:11:41.697Z,97
2018-06-12T00:12:41.692Z,97
2018-06-12T00:13:41.938Z,97
2018-06-12T00:14:41.768Z,97
2018-06-12T00:15:41.685Z,97
2018-06-12T00:16:41.711Z,97
2018-06-12T00:17:41.997Z,97
2018-06-12T00:18:41.707Z,97
2018-06-12T00:19:41.739Z,97
2018-06-12T00:20:41.708Z,97
2018-06-12T00:21:41.711Z,97
2018-06-12T00:22:41.756Z,97
2018-06-12T00:23:41.725Z,97
2018-06-12T00:24:42.048Z,97
2018-06-12T00:25:41.714Z,98
2018-06-12T00:26:42.097Z,98
2018-06-12T00:27:41.728Z,98
2018-06-12T00:28:42.049Z,98
2018-06-12T00:29:42.016Z,98
2018-06-12T00:30:41.768Z,98
2018-06-12T00:31:41.751Z,98
2018-06-12T00:32:41.739Z,98
2018-06-12T00:33:42.026Z,98
2018-06-12T00:34:41.753Z,98
2018-06-12T00:35:41.729Z,98
2018-06-12T00:36:41.738Z,98
2018-06-12T00:37:41.796Z,98
2018-06-12T00:38:41.749Z,98
2018-06-12T00:39:41.772Z,98
2018-06-12T00:40:41.783Z,98
2018-06-12T00:41:41.754Z,98
2018-06-12T00:42:41.747Z,98
2018-06-12T00:43:42.061Z,98
2018-06-12T00:44:41.776Z,98
2018-06-12T00:45:42.075Z,98
2018-06-12T00:46:41.809Z,97
2018-06-12T00:47:41.783Z,97
2018-06-12T00:48:41.788Z,97
2018-06-12T00:49:41.788Z,97
2018-06-12T00:50:42.106Z,97
2018-06-12T00:51:41.813Z,97
2018-06-12T00:52:41.786Z,97
2018-06-12T00:53:42.109Z,97
2018-06-12T00:54:42.082Z,97
2018-06-12T00:55:41.769Z,97
2018-06-12T00:56:41.776Z,97
2018-06-12T00:57:41.814Z,97
2018-06-12T00:58:41.792Z,97
2018-06-12T00:59:41.816Z,97
2018-06-12T01:00:41.869Z,97
2018-06-12T01:01:41.809Z,97
2018-06-12T01:02:41.804Z,97
2018-06-12T01:03:42.124Z,97
2018-06-12T01:04:41.887Z,97
2018-06-12T01:05:41.865Z,97
2018-06-12T01:06:41.785Z,97
2018-06-12T01:07:42.128Z,97
2018-06-12T01:08:41.839Z,97
2018-06-12T01:09:41.784Z,97
2018-06-12T01:10:41.845Z,97
2018-06-12T01:11:41.761Z,97
2018-06-12T01:12:41.809Z,97
2018-06-12T01:13:41.815Z,97
2018-06-12T01:14:41.882Z,97
2018-06-12T01:15:42.105Z,97
2018-06-12T01:16:41.838Z,97
2018-06-12T01:17:41.876Z,97
2018-06-12T01:18:41.828Z,97
2018-06-12T01:19:41.812Z,97
2018-06-12T01:20:42.113Z,97
2018-06-12T01:21:41.816Z,97
2018-06-12T01:22:41.877Z,97
2018-06-12T01:23:41.826Z,97
2018-06-12T01:24:42.114Z,97
2018-06-12T01:25:41.852Z,97
2018-06-12T01:26:41.835Z,97
2018-06-12T01:27:42.112Z,97
2018-06-12T01:28:41.820Z,97
2018-06-12T01:29:42.165Z,97
2018-06-12T01:30:41.975Z,97
2018-06-12T01:31:41.920Z,97
2018-06-12T01:32:42.201Z,97
2018-06-12T01:33:42.161Z,97
2018-06-12T01:34:41.841Z,97
2018-06-12T01:35:41.890Z,97
2018-06-12T01:36:41.849Z,97
2018-06-12T01:37:41.821Z,97
2018-06-12T01:38:41.849Z,97
2018-06-12T01:39:41.877Z,97
2018-06-12T01:40:41.848Z,97
2018-06-12T01:41:41.921Z,97
2018-06-12T01:42:41.825Z,97
2018-06-12T01:43:41.819Z,97
2018-06-12T01:44:42.173Z,97
2018-06-12T01:45:42.199Z,97
2018-06-12T01:46:41.849Z,97
2018-06-12T01:47:41.950Z,97
2018-06-12T01:48:41.929Z,97
2018-06-12T01:49:41.912Z,97
2018-06-12T01:50:42.196Z,97
2018-06-12T01:51:41.955Z,97
2018-06-12T01:52:41.901Z,97
2018-06-12T01:53:41.856Z,97
2018-06-12T01:54:42.215Z,97
2018-06-12T01:55:41.921Z,97
2018-06-12T01:56:41.870Z,97
2018-06-12T01:57:41.920Z,97
2018-06-12T01:58:41.873Z,97
2018-06-12T01:59:42.193Z,97
2018-06-12T02:00:42.208Z,97
2018-06-12T02:01:41.969Z,97
2018-06-12T02:02:41.913Z,97
2018-06-12T02:03:41.899Z,97
2018-06-12T02:04:41.913Z,97
2018-06-12T02:05:42.239Z,97
2018-06-12T02:06:41.936Z,97
2018-06-12T02:07:41.928Z,97
2018-06-12T02:08:41.970Z,97
2018-06-12T02:09:42.165Z,97
2018-06-12T02:10:42.017Z,97
2018-06-12T02:11:42.225Z,97
2018-06-12T02:12:41.986Z,97
2018-06-12T02:13:41.913Z,97
2018-06-12T02:14:41.939Z,97
2018-06-12T02:15:41.947Z,97
2018-06-12T02:16:41.918Z,97
2018-06-12T02:17:42.187Z,97
2018-06-12T02:18:41.906Z,97
2018-06-12T02:19:42.027Z,97
2018-06-12T02:20:42.245Z,97
2018-06-12T02:21:41.973Z,97
2018-06-12T02:22:41.929Z,97
2018-06-12T02:23:42.212Z,97
2018-06-12T02:24:42.232Z,97
2018-06-12T02:25:41.951Z,97
2018-06-12T02:26:42.267Z,97
2018-06-12T02:27:42.562Z,97
2018-06-12T02:28:42.345Z,97
2018-06-12T02:29:41.970Z,97
2018-06-12T02:30:42.291Z,97
2018-06-12T02:31:42.088Z,97
2018-06-12T02:32:42.009Z,97
2018-06-12T02:33:42.306Z,97
2018-06-12T02:34:42.365Z,97
2018-06-12T02:35:41.954Z,97
2018-06-12T02:36:42.322Z,97
2018-06-12T02:37:41.984Z,97
2018-06-12T02:38:42.215Z,97
2018-06-12T02:39:42.276Z,97
2018-06-12T02:40:41.969Z,97
2018-06-12T02:41:41.996Z,97
2018-06-12T02:42:41.948Z,97
2018-06-12T02:43:42.027Z,97
2018-06-12T02:44:42.079Z,97
2018-06-12T02:45:42.263Z,97
2018-06-12T02:46:42.022Z,97
2018-06-12T02:47:42.046Z,97
2018-06-12T02:48:41.993Z,97
2018-06-12T02:49:42.110Z,97
2018-06-12T02:50:42.248Z,97
2018-06-12T02:51:42.001Z,97
2018-06-12T02:52:42.021Z,97
2018-06-12T02:53:42.114Z,97
2018-06-12T02:54:42.302Z,97
2018-06-12T02:55:42.307Z,97
2018-06-12T02:56:42.075Z,97
2018-06-12T02:57:42.350Z,97
2018-06-12T02:58:42.073Z,97
2018-06-12T02:59:42.009Z,97
2018-06-12T03:00:42.012Z,98
2018-06-12T03:01:42.112Z,98
2018-06-12T03:02:42.377Z,98
2018-06-12T03:03:42.043Z,97
2018-06-12T03:04:42.075Z,97
2018-06-12T03:05:42.081Z,97
2018-06-12T03:06:42.300Z,97
2018-06-12T03:07:42.325Z,97
2018-06-12T03:08:42.003Z,98
2018-06-12T03:09:42.045Z,98
2018-06-12T03:10:42.346Z,98
2018-06-12T03:11:42.336Z,97
2018-06-12T03:12:42.095Z,97
2018-06-12T03:13:42.296Z,97
2018-06-12T03:14:41.995Z,97
2018-06-12T03:15:42.007Z,97
2018-06-12T03:16:42.348Z,97
2018-06-12T03:17:42.203Z,97
2018-06-12T03:18:42.032Z,97
2018-06-12T03:19:42.045Z,97
2018-06-12T03:20:42.034Z,97
2018-06-12T03:21:42.056Z,97
2018-06-12T03:22:42.057Z,97
2018-06-12T03:23:42.081Z,97
2018-06-12T03:24:42.027Z,97
2018-06-12T03:25:42.101Z,97
2018-06-12T03:26:42.062Z,97
2018-06-12T03:27:42.058Z,97
2018-06-12T03:28:42.128Z,97
2018-06-12T03:29:42.134Z,97
2018-06-12T03:30:42.175Z,97
2018-06-12T03:31:42.121Z,97
2018-06-12T03:32:42.142Z,97
2018-06-12T03:33:42.092Z,97
2018-06-12T03:34:42.117Z,97
2018-06-12T03:35:42.398Z,97
2018-06-12T03:36:42.095Z,97
2018-06-12T03:37:42.102Z,97
2018-06-12T03:38:42.110Z,97
2018-06-12T03:39:42.416Z,97
2018-06-12T03:40:42.159Z,97
2018-06-12T03:41:42.110Z,97
2018-06-12T03:42:42.178Z,97
2018-06-12T03:43:58.554Z,97
2018-06-12T03:44:42.401Z,97
2018-06-12T03:45:42.096Z,97
2018-06-12T03:46:42.429Z,97
2018-06-12T03:47:42.415Z,97
2018-06-12T03:48:42.205Z,97
2018-06-12T03:49:42.208Z,97
2018-06-12T03:50:42.093Z,97
2018-06-12T03:51:42.118Z,97
2018-06-12T03:52:42.173Z,97
2018-06-12T03:53:42.151Z,97
2018-06-12T03:54:42.399Z,97
2018-06-12T03:55:42.171Z,97
2018-06-12T03:56:42.141Z,97
2018-06-12T03:57:42.132Z,97
2018-06-12T03:58:42.123Z,97
2018-06-12T03:59:42.446Z,97
2018-06-12T04:00:42.187Z,97
2018-06-12T04:01:42.107Z,97
2018-06-12T04:02:42.494Z,97
2018-06-12T04:03:42.106Z,97
2018-06-12T04:04:42.174Z,98
2018-06-12T04:05:42.460Z,98
2018-06-12T04:06:42.509Z,98
2018-06-12T04:07:42.297Z,98
2018-06-12T04:08:42.179Z,98
2018-06-12T04:09:42.444Z,98
2018-06-12T04:10:42.202Z,98
2018-06-12T04:11:42.492Z,98
2018-06-12T04:12:42.179Z,98
2018-06-12T04:13:42.172Z,98
2018-06-12T04:14:42.539Z,98
2018-06-12T04:15:42.133Z,98
2018-06-12T04:16:42.216Z,98
2018-06-12T04:17:42.415Z,98
2018-06-12T04:18:42.229Z,98
2018-06-12T04:19:42.299Z,98
2018-06-12T04:20:42.220Z,98
2018-06-12T04:21:42.204Z,98
2018-06-12T04:22:42.190Z,98
2018-06-12T04:23:42.549Z,98
2018-06-12T04:24:42.199Z,98
2018-06-12T04:25:42.502Z,98
2018-06-12T04:26:42.292Z,98
2018-06-12T04:27:42.226Z,98
2018-06-12T04:28:42.490Z,98
2018-06-12T04:29:42.184Z,98
2018-06-12T04:30:42.553Z,98
2018-06-12T04:31:42.440Z,98
2018-06-12T04:32:42.208Z,98
2018-06-12T04:33:42.233Z,98
2018-06-12T04:34:42.225Z,98
2018-06-12T04:35:42.483Z,98
2018-06-12T04:36:42.210Z,98
2018-06-12T04:37:42.209Z,98
2018-06-12T04:38:42.266Z,98
2018-06-12T04:39:42.315Z,98
2018-06-12T04:40:42.233Z,98
2018-06-12T04:41:42.245Z,98
2018-06-12T04:42:42.233Z,98
2018-06-12T04:43:42.271Z,98
2018-06-12T04:44:42.193Z,98
2018-06-12T04:45:42.230Z,97
2018-06-12T04:46:42.179Z,97
2018-06-12T04:47:42.218Z,97
2018-06-12T04:48:42.235Z,97
2018-06-12T04:49:42.556Z,97
2018-06-12T04:50:42.561Z,98
2018-06-12T04:51:42.491Z,98
2018-06-12T04:52:42.524Z,98
2018-06-12T04:53:42.227Z,98
2018-06-12T04:54:42.572Z,98
2018-06-12T04:55:42.531Z,98
2018-06-12T04:56:42.291Z,98
2018-06-12T04:57:42.269Z,98
2018-06-12T04:58:42.253Z,98
2018-06-12T04:59:42.537Z,98
2018-06-12T05:00:42.255Z,98
2018-06-12T05:01:42.292Z,98
2018-06-12T05:02:42.223Z,98
2018-06-12T05:03:42.571Z,98
2018-06-12T05:04:42.278Z,98
2018-06-12T05:05:42.596Z,97
2018-06-12T05:06:42.271Z,97
2018-06-12T05:07:42.420Z,97
2018-06-12T05:08:42.516Z,97
2018-06-12T05:09:42.919Z,97
2018-06-12T05:10:42.552Z,97
2018-06-12T05:11:42.423Z,97
2018-06-12T05:12:42.758Z,97
2018-06-12T05:13:42.738Z,97
2018-06-12T05:14:43.054Z,97
2018-06-12T05:15:42.340Z,97
2018-06-12T05:16:42.289Z,97
2018-06-12T05:17:42.624Z,97
2018-06-12T05:18:42.276Z,97
2018-06-12T05:19:42.353Z,97
2018-06-12T05:20:42.532Z,97
2018-06-12T05:21:42.299Z,97
2018-06-12T05:22:42.649Z,97
2018-06-12T05:23:42.322Z,97
2018-06-12T05:24:42.629Z,97
2018-06-12T05:25:42.403Z,97
2018-06-12T05:26:42.286Z,97
2018-06-12T05:27:42.451Z,97
2018-06-12T05:28:42.606Z,97
2018-06-12T05:29:42.269Z,97
2018-06-12T05:30:42.287Z,97
2018-06-12T05:31:42.312Z,97
2018-06-12T05:32:42.307Z,97
2018-06-12T05:33:42.362Z,97
2018-06-12T05:34:42.292Z,97
2018-06-12T05:35:42.666Z,97
2018-06-12T05:36:42.362Z,97
2018-06-12T05:37:42.523Z,97
2018-06-12T05:38:42.516Z,97
2018-06-12T05:39:42.380Z,97
2018-06-12T05:40:42.332Z,97
2018-06-12T05:41:42.313Z,97
2018-06-12T05:42:42.333Z,97
2018-06-12T05:43:42.350Z,97
2018-06-12T05:44:42.637Z,97
2018-06-12T05:45:42.317Z,97
2018-06-12T05:46:42.662Z,96
2018-06-12T05:47:42.307Z,96
2018-06-12T05:48:42.303Z,96
2018-06-12T05:49:42.381Z,96
2018-06-12T05:50:42.352Z,96
2018-06-12T05:51:42.354Z,96
2018-06-12T05:52:42.581Z,96
2018-06-12T05:53:42.324Z,96
2018-06-12T05:54:42.358Z,96
2018-06-12T05:55:42.401Z,96
2018-06-12T05:56:42.338Z,96
2018-06-12T05:57:42.335Z,96
2018-06-12T05:58:42.404Z,95
2018-06-12T05:59:42.399Z,95
2018-06-12T06:00:42.410Z,95
2018-06-12T06:01:42.681Z,95
2018-06-12T06:02:42.699Z,95
2018-06-12T06:03:42.407Z,94
2018-06-12T06:04:42.408Z,94
2018-06-12T06:05:42.396Z,94
2018-06-12T06:06:42.332Z,93
2018-06-12T06:07:42.420Z,93
2018-06-12T06:08:42.360Z,92
2018-06-12T06:09:42.733Z,92
2018-06-12T06:10:42.528Z,92
2018-06-12T06:11:42.387Z,92
2018-06-12T06:12:42.428Z,92
2018-06-12T06:13:42.660Z,92
2018-06-12T06:14:42.763Z,91
2018-06-12T06:15:42.442Z,91
2018-06-12T06:16:42.415Z,91
2018-06-12T06:17:42.392Z,91
2018-06-12T06:18:42.371Z,91
2018-06-12T06:19:42.721Z,91
2018-06-12T06:20:42.415Z,91
2018-06-12T06:21:42.419Z,89
2018-06-12T06:22:42.490Z,89
2018-06-12T06:23:42.397Z,89
2018-06-12T06:24:42.405Z,88
2018-06-12T06:25:42.428Z,88
2018-06-12T06:26:42.403Z,89
2018-06-12T06:27:42.361Z,89
2018-06-12T06:28:42.398Z,89
2018-06-12T06:29:42.494Z,89
2018-06-12T06:30:42.438Z,89
2018-06-12T06:31:42.376Z,85
2018-06-12T06:32:42.394Z,85
2018-06-12T06:33:42.732Z,85
2018-06-12T06:34:42.653Z,83
2018-06-12T06:35:42.715Z,83
2018-06-12T06:36:42.440Z,82
2018-06-12T06:37:42.413Z,82
2018-06-12T06:38:42.770Z,82
2018-06-12T06:39:42.433Z,81
2018-06-12T06:40:42.468Z,81
2018-06-12T06:41:42.510Z,81
2018-06-12T06:42:42.447Z,81
2018-06-12T06:43:42.444Z,81
2018-06-12T06:44:42.463Z,79
2018-06-12T06:45:42.470Z,79
2018-06-12T06:46:42.462Z,79
2018-06-12T06:47:42.516Z,81
2018-06-12T06:48:42.483Z,81
2018-06-12T06:49:42.790Z,82
2018-06-12T06:50:42.771Z,82
2018-06-12T06:51:42.480Z,82
2018-06-12T06:52:42.483Z,83
2018-06-12T06:53:42.532Z,83
2018-06-12T06:54:42.473Z,83
2018-06-12T06:55:42.481Z,83
2018-06-12T06:56:42.743Z,83
2018-06-12T06:57:42.496Z,83
2018-06-12T06:58:42.711Z,83
2018-06-12T06:59:42.798Z,83
2018-06-12T07:00:42.458Z,83
2018-06-12T07:01:42.778Z,83
2018-06-12T07:02:42.502Z,84
2018-06-12T07:03:42.465Z,84
2018-06-12T07:04:42.469Z,84
2018-06-12T07:05:42.449Z,84
2018-06-12T07:06:42.743Z,84
2018-06-12T07:07:42.492Z,84
2018-06-12T07:08:42.419Z,84
2018-06-12T07:09:42.747Z,84
2018-06-12T07:10:42.993Z,84
2018-06-12T07:11:42.862Z,84
2018-06-12T07:12:43.167Z,83
2018-06-12T07:13:42.714Z,83
2018-06-12T07:14:43.173Z,83
2018-06-12T07:15:42.811Z,84
2018-06-12T07:16:43.554Z,84
2018-06-12T07:17:42.768Z,85
2018-06-12T07:18:42.494Z,85
2018-06-12T07:19:42.801Z,85
2018-06-12T07:20:42.562Z,84
2018-06-12T07:21:42.527Z,84
2018-06-12T07:22:42.568Z,84
2018-06-12T07:23:43.227Z,84
2018-06-12T07:24:42.659Z,84
2018-06-12T07:25:42.768Z,84
2018-06-12T07:26:43.151Z,84
2018-06-12T07:27:42.551Z,84
2018-06-12T07:28:43.385Z,84
2018-06-12T07:29:43.202Z,84
2018-06-12T07:30:43.799Z,85
2018-06-12T07:31:43.628Z,85
2018-06-12T07:32:43.673Z,86
2018-06-12T07:33:43.554Z,86
2018-06-12T07:34:43.516Z,86
2018-06-12T07:35:43.467Z,85
2018-06-12T07:36:43.634Z,85
2018-06-12T07:37:42.919Z,84
2018-06-12T07:38:43.335Z,84
2018-06-12T07:39:42.884Z,84
2018-06-12T07:40:43.203Z,84
2018-06-12T07:41:43.910Z,84
2018-06-12T07:42:43.284Z,84
2018-06-12T07:43:43.970Z,83
2018-06-12T07:44:43.122Z,83
2018-06-12T07:45:44.004Z,82
2018-06-12T07:46:42.919Z,82
2018-06-12T07:47:43.656Z,82
2018-06-12T07:48:43.471Z,82
2018-06-12T07:49:43.420Z,82
2018-06-12T07:50:43.840Z,80
2018-06-12T07:51:42.927Z,80
2018-06-12T07:52:43.682Z,80
2018-06-12T07:53:43.431Z,79
2018-06-12T07:54:43.210Z,79
2018-06-12T07:55:43.336Z,80
2018-06-12T07:56:42.883Z,80
2018-06-12T07:57:43.419Z,80
2018-06-12T07:58:43.214Z,80
2018-06-12T07:59:43.210Z,80
2018-06-12T08:00:43.658Z,78
2018-06-12T08:01:43.608Z,78
2018-06-12T08:02:44.027Z,78
2018-06-12T08:03:43.797Z,78
2018-06-12T08:04:43.214Z,78
2018-06-12T08:05:43.558Z,79
2018-06-12T08:06:42.810Z,79
2018-06-12T08:07:44.228Z,79
2018-06-12T08:08:43.309Z,78
2018-06-12T08:09:43.335Z,78
2018-06-12T08:10:43.428Z,80
2018-06-12T08:11:43.351Z,80
2018-06-12T08:12:42.978Z,80
2018-06-12T08:13:43.924Z,83
2018-06-12T08:14:42.852Z,83
2018-06-12T08:15:44.666Z,83
2018-06-12T08:16:43.990Z,83
2018-06-12T08:17:43.313Z,83
2018-06-12T08:18:43.527Z,85
2018-06-12T08:19:43.413Z,85
2018-06-12T08:20:43.425Z,85
2018-06-12T08:21:43.051Z,85
2018-06-12T08:22:43.421Z,85
2018-06-12T08:23:44.230Z,86
2018-06-12T08:24:43.169Z,86
2018-06-12T08:25:43.549Z,86
2018-06-12T08:26:43.239Z,87
2018-06-12T08:27:42.809Z,87
2018-06-12T08:28:43.308Z,87
2018-06-12T08:29:43.418Z,87
2018-06-12T08:30:43.357Z,87
2018-06-12T08:31:43.742Z,87
2018-06-12T08:32:43.123Z,87
2018-06-12T08:33:42.901Z,87
2018-06-12T08:35:42.863Z,87
2018-06-12T08:36:42.939Z,87
2018-06-12T08:37:43.703Z,87
2018-06-12T08:38:43.834Z,88
2018-06-12T08:39:43.491Z,88
2018-06-12T08:40:43.447Z,88
2018-06-12T08:41:43.492Z,87
2018-06-12T08:42:43.548Z,87
2018-06-12T08:43:42.901Z,87
2018-06-12T08:44:43.390Z,86
2018-06-12T08:45:42.739Z,86
2018-06-12T08:46:44.089Z,86
2018-06-12T08:47:42.679Z,86
2018-06-12T08:48:42.997Z,86
2018-06-12T08:49:42.692Z,86
2018-06-12T08:50:42.731Z,86
2018-06-12T08:51:42.722Z,86
2018-06-12T08:52:43.058Z,86
2018-06-12T08:53:43.047Z,86
2018-06-12T08:54:42.684Z,85
2018-06-12T08:55:43.074Z,85
2018-06-12T08:56:42.707Z,86
2018-06-12T08:57:43.004Z,86
2018-06-12T08:58:42.757Z,86
2018-06-12T08:59:42.729Z,86
2018-06-12T09:00:42.992Z,86
2018-06-12T09:01:42.726Z,86
2018-06-12T09:02:42.789Z,86
2018-06-12T09:03:42.670Z,86
2018-06-12T09:04:43.028Z,86
2018-06-12T09:05:43.045Z,86
2018-06-12T09:06:42.781Z,86
2018-06-12T09:07:42.725Z,86
2018-06-12T09:08:42.706Z,86
2018-06-12T09:09:42.700Z,87
2018-06-12T09:10:42.705Z,87
2018-06-12T09:11:42.695Z,87
2018-06-12T09:12:42.685Z,87
2018-06-12T09:13:43.109Z,87
2018-06-12T09:14:42.668Z,87
2018-06-12T09:15:42.741Z,87
2018-06-12T09:16:42.750Z,87
2018-06-12T09:17:42.742Z,87
2018-06-12T09:18:42.749Z,87
2018-06-12T09:19:43.064Z,86
2018-06-12T09:20:42.744Z,86
2018-06-12T09:21:42.738Z,86
2018-06-12T09:22:42.797Z,86
2018-06-12T09:23:43.061Z,86
2018-06-12T09:24:42.737Z,87
2018-06-12T09:25:43.125Z,87
2018-06-12T09:26:42.704Z,87
2018-06-12T09:27:42.816Z,87
2018-06-12T09:28:42.785Z,87
2018-06-12T09:29:42.742Z,87
2018-06-12T09:30:43.119Z,87
2018-06-12T09:31:43.088Z,87
2018-06-12T09:32:42.814Z,88
2018-06-12T09:33:42.824Z,88
2018-06-12T09:34:43.177Z,87
2018-06-12T09:35:42.849Z,87
2018-06-12T09:36:43.169Z,87
2018-06-12T09:37:42.818Z,87
2018-06-12T09:38:42.804Z,87
2018-06-12T09:39:42.795Z,88
2018-06-12T09:40:43.114Z,88
2018-06-12T09:41:42.825Z,88
2018-06-12T09:42:42.832Z,88
2018-06-12T09:43:43.048Z,88
2018-06-12T09:44:42.817Z,88
2018-06-12T09:45:42.733Z,86
2018-06-12T09:46:42.756Z,86
2018-06-12T09:47:42.768Z,86
2018-06-12T09:48:42.791Z,86
2018-06-12T09:49:42.795Z,86
2018-06-12T09:50:42.860Z,87
2018-06-12T09:51:42.728Z,87
2018-06-12T09:52:42.904Z,86
2018-06-12T09:53:43.039Z,86
2018-06-12T09:54:43.048Z,86
2018-06-12T09:55:42.796Z,86
2018-06-12T09:56:42.806Z,86
2018-06-12T09:57:43.183Z,88
2018-06-12T09:58:42.795Z,88
2018-06-12T09:59:42.813Z,88
2018-06-12T10:00:42.806Z,88
2018-06-12T10:01:42.761Z,88
2018-06-12T10:02:43.073Z,87
2018-06-12T10:03:42.797Z,87
2018-06-12T10:04:42.799Z,87
2018-06-12T10:05:42.829Z,86
2018-06-12T10:06:42.818Z,86
2018-06-12T10:07:42.809Z,86
2018-06-12T10:08:42.797Z,86
2018-06-12T10:09:42.787Z,86
2018-06-12T10:10:42.828Z,85
2018-06-12T10:11:42.846Z,85
2018-06-12T10:12:42.832Z,85
2018-06-12T10:13:42.845Z,85
2018-06-12T10:14:42.774Z,85
2018-06-12T10:15:42.837Z,85
2018-06-12T10:16:43.276Z,85
2018-06-12T10:17:42.870Z,85
2018-06-12T10:18:42.829Z,83
2018-06-12T10:19:42.860Z,83
2018-06-12T10:20:43.133Z,83
2018-06-12T10:21:42.847Z,83
2018-06-12T10:22:42.941Z,83
2018-06-12T10:23:43.158Z,83
2018-06-12T10:24:42.886Z,83
2018-06-12T10:25:42.971Z,82
2018-06-12T10:26:43.209Z,82
2018-06-12T10:27:42.895Z,82
2018-06-12T10:28:42.886Z,81
2018-06-12T10:29:42.906Z,81
2018-06-12T10:30:42.849Z,81
2018-06-12T10:31:43.239Z,81
2018-06-12T10:32:42.844Z,81
2018-06-12T10:33:42.886Z,81
2018-06-12T10:34:42.911Z,81
2018-06-12T10:35:42.847Z,81
2018-06-12T10:36:43.140Z,81
2018-06-12T10:37:42.911Z,81
2018-06-12T10:38:42.873Z,81
2018-06-12T10:39:42.906Z,81
2018-06-12T10:40:43.143Z,81
2018-06-12T10:41:42.954Z,81
2018-06-12T10:42:42.928Z,81
2018-06-12T10:43:42.986Z,80
2018-06-12T10:44:42.883Z,80
2018-06-12T10:45:42.885Z,80
2018-06-12T10:46:43.218Z,80
2018-06-12T10:47:42.957Z,80
2018-06-12T10:48:42.926Z,81
2018-06-12T10:49:42.927Z,81
2018-06-12T10:50:43.203Z,81
2018-06-12T10:51:42.902Z,81
2018-06-12T10:52:42.919Z,81
2018-06-12T10:53:42.910Z,81
2018-06-12T10:54:43.226Z,81
2018-06-12T10:55:42.879Z,81
2018-06-12T10:56:42.900Z,80
2018-06-12T10:57:42.868Z,80
2018-06-12T10:58:42.964Z,82
2018-06-12T10:59:42.902Z,82
2018-06-12T11:00:42.929Z,82
2018-06-12T11:01:42.918Z,82
2018-06-12T11:02:43.046Z,82
2018-06-12T11:03:42.982Z,82
2018-06-12T11:04:43.396Z,82
2018-06-12T11:05:43.432Z,82
2018-06-12T11:06:43.096Z,83
2018-06-12T11:07:43.063Z,83
2018-06-12T11:08:43.852Z,85
2018-06-12T11:09:44.473Z,85
2018-06-12T11:10:44.386Z,85
2018-06-12T11:11:43.159Z,87
2018-06-12T11:12:43.102Z,87
2018-06-12T11:13:43.176Z,89
2018-06-12T11:14:42.957Z,89
2018-06-12T11:15:42.910Z,89
2018-06-12T11:16:42.955Z,90
2018-06-12T11:17:43.218Z,90
2018-06-12T11:18:42.908Z,90
2018-06-12T11:19:43.144Z,91
2018-06-12T11:20:43.101Z,91
2018-06-12T11:21:42.953Z,91
2018-06-12T11:22:42.965Z,91
2018-06-12T11:23:42.891Z,91
2018-06-12T11:24:43.056Z,93
2018-06-12T11:25:42.889Z,93
2018-06-12T11:26:42.910Z,93
2018-06-12T11:27:42.942Z,93
2018-06-12T11:28:42.943Z,93
2018-06-12T11:29:42.878Z,94
2018-06-12T11:30:42.934Z,94
2018-06-12T11:31:42.897Z,94
2018-06-12T11:32:42.918Z,94
2018-06-12T11:33:42.931Z,94
2018-06-12T11:34:42.911Z,94
2018-06-12T11:35:42.923Z,94
2018-06-12T11:36:42.865Z,94
2018-06-12T11:37:42.888Z,94
2018-06-12T11:38:42.919Z,94
2018-06-12T11:39:42.976Z,94
2018-06-12T11:40:42.948Z,94
2018-06-12T11:41:42.906Z,94
2018-06-12T11:42:42.924Z,94
2018-06-12T11:43:43.023Z,94
2018-06-12T11:44:42.913Z,94
2018-06-12T11:45:42.904Z,94
2018-06-12T11:46:42.926Z,94
2018-06-12T11:47:43.206Z,93
2018-06-12T11:48:42.977Z,93
2018-06-12T11:49:42.936Z,92
2018-06-12T11:50:42.915Z,92
2018-06-12T11:51:43.226Z,92
2018-06-12T11:52:43.198Z,92
2018-06-12T11:53:42.961Z,92
2018-06-12T11:54:42.960Z,92
2018-06-12T11:55:43.208Z,92
2018-06-12T11:56:43.260Z,92
2018-06-12T11:57:43.286Z,92
2018-06-12T11:58:42.960Z,92
2018-06-12T11:59:43.730Z,92
2018-06-12T12:00:43.098Z,92
2018-06-12T12:01:42.982Z,92
2018-06-12T12:02:42.954Z,91
2018-06-12T12:03:42.989Z,91
2018-06-12T12:04:43.001Z,91
2018-06-12T12:05:43.325Z,91
2018-06-12T12:06:42.934Z,91
2018-06-12T12:07:42.997Z,91
2018-06-12T12:08:43.283Z,91
2018-06-12T12:09:42.977Z,91
2018-06-12T12:10:42.981Z,91
2018-06-12T12:11:42.988Z,91
2018-06-12T12:12:42.971Z,91
2018-06-12T12:13:42.991Z,91
2018-06-12T12:14:43.269Z,90
2018-06-12T12:15:43.291Z,90
2018-06-12T12:16:43.359Z,90
2018-06-12T12:17:43.273Z,90
2018-06-12T12:18:43.011Z,90
2018-06-12T12:19:43.043Z,90
2018-06-12T12:20:43.092Z,90
2018-06-12T12:21:43.306Z,90
2018-06-12T12:22:43.302Z,90
2018-06-12T12:23:42.961Z,90
2018-06-12T12:24:43.039Z,90
2018-06-12T12:25:43.024Z,90
2018-06-12T12:26:43.299Z,90
2018-06-12T12:27:43.051Z,88
2018-06-12T12:28:43.079Z,88
2018-06-12T12:29:43.041Z,88
2018-06-12T12:30:43.314Z,88
2018-06-12T12:31:43.048Z,88
2018-06-12T12:32:43.100Z,88
2018-06-12T12:33:42.974Z,88
2018-06-12T12:34:43.035Z,88
2018-06-12T12:35:43.320Z,84
2018-06-12T12:36:42.989Z,84
2018-06-12T12:37:43.015Z,83
2018-06-12T12:38:43.049Z,83
2018-06-12T12:39:43.024Z,83
2018-06-12T12:40:43.062Z,82
2018-06-12T12:41:43.082Z,82
2018-06-12T12:42:43.054Z,82
2018-06-12T12:43:43.130Z,82
2018-06-12T12:44:43.365Z,82
2018-06-12T12:45:43.040Z,82
2018-06-12T12:46:43.361Z,82
2018-06-12T12:47:43.025Z,82
2018-06-12T12:48:43.354Z,81
2018-06-12T12:49:43.055Z,81
2018-06-12T12:50:43.294Z,81
2018-06-12T12:51:43.021Z,81
2018-06-12T12:52:43.062Z,81
2018-06-12T12:53:43.355Z,83
2018-06-12T12:54:43.041Z,83
2018-06-12T12:55:43.304Z,83
2018-06-12T12:56:43.024Z,83
2018-06-12T12:57:43.130Z,83
2018-06-12T12:58:43.025Z,83
2018-06-12T12:59:43.078Z,83
2018-06-12T13:00:43.062Z,84
2018-06-12T13:01:43.049Z,84
2018-06-12T13:02:43.021Z,84
2018-06-12T13:03:43.370Z,84
2018-06-12T13:04:43.057Z,84
2018-06-12T13:05:43.078Z,84
2018-06-12T13:06:43.049Z,84
2018-06-12T13:07:43.107Z,84
2018-06-12T13:08:43.327Z,85
2018-06-12T13:09:43.085Z,85
2018-06-12T13:10:43.376Z,84
2018-06-12T13:11:43.097Z,84
2018-06-12T13:12:43.367Z,84
2018-06-12T13:13:43.063Z,85
2018-06-12T13:14:43.037Z,85
2018-06-12T13:15:43.070Z,85
2018-06-12T13:16:43.096Z,85
2018-06-12T13:17:43.402Z,85
2018-06-12T13:18:43.105Z,84
2018-06-12T13:19:43.112Z,84
2018-06-12T13:20:43.437Z,84
2018-06-12T13:21:43.082Z,84
2018-06-12T13:22:43.082Z,84
2018-06-12T13:23:43.415Z,84
2018-06-12T13:24:43.086Z,84
2018-06-12T13:25:43.129Z,84
2018-06-12T13:26:43.177Z,83
2018-06-12T13:27:43.070Z,83
2018-06-12T13:28:43.459Z,84
2018-06-12T13:29:43.095Z,84
2018-06-12T13:30:43.091Z,84
2018-06-12T13:31:43.083Z,83
2018-06-12T13:32:43.128Z,83
2018-06-12T13:33:43.191Z,83
2018-06-12T13:34:43.178Z,83
2018-06-12T13:35:43.425Z,83
2018-06-12T13:36:43.133Z,83
2018-06-12T13:37:43.141Z,83
2018-06-12T13:38:43.087Z,84
2018-06-12T13:39:43.086Z,84
2018-06-12T13:40:43.160Z,84
2018-06-12T13:41:43.158Z,84
2018-06-12T13:42:43.134Z,84
2018-06-12T13:43:43.129Z,84
2018-06-12T13:44:43.148Z,84
2018-06-12T13:45:43.454Z,84
2018-06-12T13:46:43.104Z,84
2018-06-12T13:47:43.172Z,84
2018-06-12T13:48:43.158Z,84
2018-06-12T13:49:43.213Z,84
2018-06-12T13:50:43.223Z,84
2018-06-12T13:51:43.195Z,84
2018-06-12T13:52:43.168Z,84
2018-06-12T13:53:43.161Z,84
2018-06-12T13:54:43.545Z,84
2018-06-12T13:55:43.204Z,84
2018-06-12T13:56:43.273Z,85
2018-06-12T13:57:43.468Z,85
2018-06-12T13:58:43.199Z,85
2018-06-12T13:59:43.212Z,85
2018-06-12T14:00:43.203Z,85
2018-06-12T14:01:43.244Z,85
2018-06-12T14:02:43.157Z,85
2018-06-12T14:03:43.224Z,85
2018-06-12T14:04:43.242Z,85
2018-06-12T14:05:43.176Z,85
2018-06-12T14:06:43.501Z,85
2018-06-12T14:07:43.267Z,85
2018-06-12T14:08:43.496Z,85
2018-06-12T14:09:43.532Z,85
2018-06-12T14:10:43.216Z,85
2018-06-12T14:11:43.243Z,86
2018-06-12T14:12:43.259Z,86
2018-06-12T14:13:49.362Z,86
2018-06-12T14:14:43.520Z,87
2018-06-12T14:15:43.240Z,87
2018-06-12T14:16:43.296Z,87